sensor_id;sensor_type;location;lat;lon;timestamp;temperature;humidity
19168;DHT22;9716;53.114;18.040;2023-06-26T00:01:34;18.70;99.80
19168;DHT22;9716;53.114;18.040;2023-06-26T00:04:02;18.70;99.90
19168;DHT22;9716;53.114;18.040;2023-06-26T00:06:32;18.60;99.90
19168;DHT22;9716;53.114;18.040;2023-06-26T00:09:01;18.60;99.90
19168;DHT22;9716;53.114;18.040;2023-06-26T00:11:29;18.40;99.90
19168;DHT22;9716;53.114;18.040;2023-06-26T00:14:00;18.40;99.90
19168;DHT22;9716;53.114;18.040;2023-06-26T00:16:29;18.30;99.90
19168;DHT22;9716;53.114;18.040;2023-06-26T00:18:58;18.30;99.90
19168;DHT22;9716;53.114;18.040;2023-06-26T00:21:27;18.20;99.90
19168;DHT22;9716;53.114;18.040;2023-06-26T00:23:56;18.30;99.90
19168;DHT22;9716;53.114;18.040;2023-06-26T00:26:25;18.10;99.90
19168;DHT22;9716;53.114;18.040;2023-06-26T00:28:53;18.10;99.90
19168;DHT22;9716;53.114;18.040;2023-06-26T00:31:22;18.10;99.90
19168;DHT22;9716;53.114;18.040;2023-06-26T00:33:50;18.00;99.90
19168;DHT22;9716;53.114;18.040;2023-06-26T00:36:19;18.00;99.90
19168;DHT22;9716;53.114;18.040;2023-06-26T00:38:49;18.00;99.90
19168;DHT22;9716;53.114;18.040;2023-06-26T00:41:20;17.90;99.90
19168;DHT22;9716;53.114;18.040;2023-06-26T00:43:48;18.00;99.90
19168;DHT22;9716;53.114;18.040;2023-06-26T00:46:17;17.90;99.90
19168;DHT22;9716;53.114;18.040;2023-06-26T00:48:47;17.90;99.90
19168;DHT22;9716;53.114;18.040;2023-06-26T00:51:16;17.90;99.90
19168;DHT22;9716;53.114;18.040;2023-06-26T00:53:45;17.90;99.90
19168;DHT22;9716;53.114;18.040;2023-06-26T00:56:14;17.90;99.90
19168;DHT22;9716;53.114;18.040;2023-06-26T00:58:44;17.90;99.90
19168;DHT22;9716;53.114;18.040;2023-06-26T01:01:13;17.90;99.90
19168;DHT22;9716;53.114;18.040;2023-06-26T01:03:43;17.80;99.90
19168;DHT22;9716;53.114;18.040;2023-06-26T01:06:14;17.80;99.90
19168;DHT22;9716;53.114;18.040;2023-06-26T01:08:43;17.70;99.90
19168;DHT22;9716;53.114;18.040;2023-06-26T01:11:13;17.70;99.90
19168;DHT22;9716;53.114;18.040;2023-06-26T01:13:44;17.60;99.90
19168;DHT22;9716;53.114;18.040;2023-06-26T01:16:15;17.60;99.90
19168;DHT22;9716;53.114;18.040;2023-06-26T01:18:46;17.60;99.90
19168;DHT22;9716;53.114;18.040;2023-06-26T01:21:17;17.50;99.90
19168;DHT22;9716;53.114;18.040;2023-06-26T01:23:57;17.50;99.90
19168;DHT22;9716;53.114;18.040;2023-06-26T01:26:29;17.50;99.90
19168;DHT22;9716;53.114;18.040;2023-06-26T01:29:04;17.50;99.90
19168;DHT22;9716;53.114;18.040;2023-06-26T01:31:35;17.40;99.90
19168;DHT22;9716;53.114;18.040;2023-06-26T01:34:05;17.40;99.90
19168;DHT22;9716;53.114;18.040;2023-06-26T01:36:34;17.30;99.90
19168;DHT22;9716;53.114;18.040;2023-06-26T01:39:04;17.30;99.90
19168;DHT22;9716;53.114;18.040;2023-06-26T01:41:34;17.30;99.90
19168;DHT22;9716;53.114;18.040;2023-06-26T01:44:11;17.20;99.90
19168;DHT22;9716;53.114;18.040;2023-06-26T01:46:48;17.20;99.90
19168;DHT22;9716;53.114;18.040;2023-06-26T01:49:25;17.20;99.90
19168;DHT22;9716;53.114;18.040;2023-06-26T01:52:03;17.10;99.90
19168;DHT22;9716;53.114;18.040;2023-06-26T01:54:39;17.10;99.90
19168;DHT22;9716;53.114;18.040;2023-06-26T01:57:12;17.10;99.90
19168;DHT22;9716;53.114;18.040;2023-06-26T01:59:40;17.10;99.90
19168;DHT22;9716;53.114;18.040;2023-06-26T02:02:10;17.10;99.90
19168;DHT22;9716;53.114;18.040;2023-06-26T02:04:39;17.00;99.90
19168;DHT22;9716;53.114;18.040;2023-06-26T02:07:08;17.00;99.90
19168;DHT22;9716;53.114;18.040;2023-06-26T02:09:37;17.00;99.90
19168;DHT22;9716;53.114;18.040;2023-06-26T02:12:07;17.00;99.90
19168;DHT22;9716;53.114;18.040;2023-06-26T02:14:36;17.00;99.90
19168;DHT22;9716;53.114;18.040;2023-06-26T02:17:05;17.00;99.90
19168;DHT22;9716;53.114;18.040;2023-06-26T02:19:35;16.90;99.90
19168;DHT22;9716;53.114;18.040;2023-06-26T02:22:04;16.90;99.90
19168;DHT22;9716;53.114;18.040;2023-06-26T02:24:32;16.90;99.90
19168;DHT22;9716;53.114;18.040;2023-06-26T02:27:01;16.90;99.90
19168;DHT22;9716;53.114;18.040;2023-06-26T02:29:30;16.90;99.90
19168;DHT22;9716;53.114;18.040;2023-06-26T02:32:00;16.90;99.90
19168;DHT22;9716;53.114;18.040;2023-06-26T02:34:29;16.80;99.90
19168;DHT22;9716;53.114;18.040;2023-06-26T02:36:58;16.80;99.90
19168;DHT22;9716;53.114;18.040;2023-06-26T02:39:27;16.80;99.90
19168;DHT22;9716;53.114;18.040;2023-06-26T02:41:56;16.80;99.90
19168;DHT22;9716;53.114;18.040;2023-06-26T02:44:24;16.80;99.90
19168;DHT22;9716;53.114;18.040;2023-06-26T02:46:53;16.80;99.90
19168;DHT22;9716;53.114;18.040;2023-06-26T02:49:23;16.80;99.90
19168;DHT22;9716;53.114;18.040;2023-06-26T02:51:52;16.80;99.90
19168;DHT22;9716;53.114;18.040;2023-06-26T02:54:20;16.90;99.90
19168;DHT22;9716;53.114;18.040;2023-06-26T02:56:49;16.90;99.90
19168;DHT22;9716;53.114;18.040;2023-06-26T02:59:17;17.00;99.90
19168;DHT22;9716;53.114;18.040;2023-06-26T03:01:46;17.00;99.90
19168;DHT22;9716;53.114;18.040;2023-06-26T03:04:14;17.10;99.90
19168;DHT22;9716;53.114;18.040;2023-06-26T03:06:46;17.10;99.90
19168;DHT22;9716;53.114;18.040;2023-06-26T03:09:15;17.20;99.90
19168;DHT22;9716;53.114;18.040;2023-06-26T03:11:44;17.20;99.90
19168;DHT22;9716;53.114;18.040;2023-06-26T03:14:12;17.40;99.90
19168;DHT22;9716;53.114;18.040;2023-06-26T03:16:41;17.40;99.90
19168;DHT22;9716;53.114;18.040;2023-06-26T03:19:10;17.50;99.90
19168;DHT22;9716;53.114;18.040;2023-06-26T03:21:38;17.70;99.90
19168;DHT22;9716;53.114;18.040;2023-06-26T03:24:08;17.80;99.90
19168;DHT22;9716;53.114;18.040;2023-06-26T03:26:37;17.90;99.90
19168;DHT22;9716;53.114;18.040;2023-06-26T03:29:05;18.00;99.90
19168;DHT22;9716;53.114;18.040;2023-06-26T03:31:34;18.10;99.90
19168;DHT22;9716;53.114;18.040;2023-06-26T03:34:02;18.30;99.90
19168;DHT22;9716;53.114;18.040;2023-06-26T03:36:31;18.40;99.90
19168;DHT22;9716;53.114;18.040;2023-06-26T03:38:59;18.50;99.90
19168;DHT22;9716;53.114;18.040;2023-06-26T03:41:30;18.60;99.90
19168;DHT22;9716;53.114;18.040;2023-06-26T03:43:58;18.80;99.90
19168;DHT22;9716;53.114;18.040;2023-06-26T03:46:28;18.90;99.90
19168;DHT22;9716;53.114;18.040;2023-06-26T03:48:57;19.10;99.90
19168;DHT22;9716;53.114;18.040;2023-06-26T03:51:26;19.30;99.90
19168;DHT22;9716;53.114;18.040;2023-06-26T03:53:54;19.60;99.90
19168;DHT22;9716;53.114;18.040;2023-06-26T03:56:23;19.90;99.90
19168;DHT22;9716;53.114;18.040;2023-06-26T03:58:53;20.10;99.90
19168;DHT22;9716;53.114;18.040;2023-06-26T04:01:21;20.40;99.90
19168;DHT22;9716;53.114;18.040;2023-06-26T04:03:50;20.60;99.90
19168;DHT22;9716;53.114;18.040;2023-06-26T04:06:18;20.90;99.90
19168;DHT22;9716;53.114;18.040;2023-06-26T04:08:47;21.10;99.90
19168;DHT22;9716;53.114;18.040;2023-06-26T04:11:16;21.40;99.90
19168;DHT22;9716;53.114;18.040;2023-06-26T04:13:44;21.70;99.90
19168;DHT22;9716;53.114;18.040;2023-06-26T04:16:14;21.80;99.90
19168;DHT22;9716;53.114;18.040;2023-06-26T04:18:43;22.10;99.90
19168;DHT22;9716;53.114;18.040;2023-06-26T04:21:12;22.20;99.90
19168;DHT22;9716;53.114;18.040;2023-06-26T04:23:41;22.50;99.90
19168;DHT22;9716;53.114;18.040;2023-06-26T04:26:09;22.80;99.90
19168;DHT22;9716;53.114;18.040;2023-06-26T04:28:40;23.10;99.90
19168;DHT22;9716;53.114;18.040;2023-06-26T04:31:11;23.20;99.90
19168;DHT22;9716;53.114;18.040;2023-06-26T04:33:41;23.30;99.90
19168;DHT22;9716;53.114;18.040;2023-06-26T04:36:10;23.40;99.90
19168;DHT22;9716;53.114;18.040;2023-06-26T04:38:38;23.50;99.90
19168;DHT22;9716;53.114;18.040;2023-06-26T04:41:07;23.70;99.90
19168;DHT22;9716;53.114;18.040;2023-06-26T04:43:36;23.90;99.90
19168;DHT22;9716;53.114;18.040;2023-06-26T04:46:05;24.00;99.90
19168;DHT22;9716;53.114;18.040;2023-06-26T04:48:34;24.20;99.90
19168;DHT22;9716;53.114;18.040;2023-06-26T04:51:04;24.40;99.90
19168;DHT22;9716;53.114;18.040;2023-06-26T04:53:32;24.70;99.90
19168;DHT22;9716;53.114;18.040;2023-06-26T04:56:01;24.90;99.90
19168;DHT22;9716;53.114;18.040;2023-06-26T04:58:29;25.00;99.90
19168;DHT22;9716;53.114;18.040;2023-06-26T05:00:58;25.30;99.90
19168;DHT22;9716;53.114;18.040;2023-06-26T05:03:28;25.40;99.90
19168;DHT22;9716;53.114;18.040;2023-06-26T05:05:57;25.70;99.90
19168;DHT22;9716;53.114;18.040;2023-06-26T05:08:29;25.90;99.70
19168;DHT22;9716;53.114;18.040;2023-06-26T05:10:57;26.00;99.00
19168;DHT22;9716;53.114;18.040;2023-06-26T05:13:26;26.20;98.40
19168;DHT22;9716;53.114;18.040;2023-06-26T05:15:55;26.50;97.70
19168;DHT22;9716;53.114;18.040;2023-06-26T05:18:24;26.70;96.80
19168;DHT22;9716;53.114;18.040;2023-06-26T05:20:53;26.90;96.20
19168;DHT22;9716;53.114;18.040;2023-06-26T05:23:23;27.00;95.50
19168;DHT22;9716;53.114;18.040;2023-06-26T05:25:55;27.20;94.90
19168;DHT22;9716;53.114;18.040;2023-06-26T05:28:24;27.40;94.20
19168;DHT22;9716;53.114;18.040;2023-06-26T05:30:55;27.50;93.70
19168;DHT22;9716;53.114;18.040;2023-06-26T05:33:25;27.60;93.20
19168;DHT22;9716;53.114;18.040;2023-06-26T05:35:55;27.70;92.90
19168;DHT22;9716;53.114;18.040;2023-06-26T05:38:24;27.80;92.50
19168;DHT22;9716;53.114;18.040;2023-06-26T05:40:55;28.00;92.00
19168;DHT22;9716;53.114;18.040;2023-06-26T05:43:24;28.10;91.60
19168;DHT22;9716;53.114;18.040;2023-06-26T05:45:56;28.30;91.20
19168;DHT22;9716;53.114;18.040;2023-06-26T05:48:24;28.40;90.90
19168;DHT22;9716;53.114;18.040;2023-06-26T05:50:53;28.50;90.60
19168;DHT22;9716;53.114;18.040;2023-06-26T05:53:23;28.70;90.10
19168;DHT22;9716;53.114;18.040;2023-06-26T05:55:52;28.80;89.60
19168;DHT22;9716;53.114;18.040;2023-06-26T05:58:24;29.00;88.80
19168;DHT22;9716;53.114;18.040;2023-06-26T06:00:54;29.00;88.10
19168;DHT22;9716;53.114;18.040;2023-06-26T06:03:23;29.10;87.70
19168;DHT22;9716;53.114;18.040;2023-06-26T06:05:52;29.40;87.00
19168;DHT22;9716;53.114;18.040;2023-06-26T06:08:21;29.60;85.90
19168;DHT22;9716;53.114;18.040;2023-06-26T06:10:49;29.90;85.00
19168;DHT22;9716;53.114;18.040;2023-06-26T06:13:18;30.10;84.00
19168;DHT22;9716;53.114;18.040;2023-06-26T06:15:48;30.40;83.10
19168;DHT22;9716;53.114;18.040;2023-06-26T06:18:17;30.60;82.00
19168;DHT22;9716;53.114;18.040;2023-06-26T06:20:46;30.70;81.10
19168;DHT22;9716;53.114;18.040;2023-06-26T06:23:15;30.90;80.40
19168;DHT22;9716;53.114;18.040;2023-06-26T06:25:43;31.10;79.80
19168;DHT22;9716;53.114;18.040;2023-06-26T06:28:12;31.20;79.20
19168;DHT22;9716;53.114;18.040;2023-06-26T06:30:43;31.20;78.80
19168;DHT22;9716;53.114;18.040;2023-06-26T06:33:16;31.40;78.40
19168;DHT22;9716;53.114;18.040;2023-06-26T06:35:45;31.40;77.90
19168;DHT22;9716;53.114;18.040;2023-06-26T06:38:13;31.60;77.40
19168;DHT22;9716;53.114;18.040;2023-06-26T06:40:42;31.70;76.80
19168;DHT22;9716;53.114;18.040;2023-06-26T06:43:10;31.80;76.40
19168;DHT22;9716;53.114;18.040;2023-06-26T06:45:39;32.00;76.00
19168;DHT22;9716;53.114;18.040;2023-06-26T06:48:07;32.20;75.60
19168;DHT22;9716;53.114;18.040;2023-06-26T06:50:37;32.40;74.60
19168;DHT22;9716;53.114;18.040;2023-06-26T06:53:07;32.70;73.90
19168;DHT22;9716;53.114;18.040;2023-06-26T06:55:36;32.90;73.20
19168;DHT22;9716;53.114;18.040;2023-06-26T06:58:04;33.10;72.60
19168;DHT22;9716;53.114;18.040;2023-06-26T07:00:33;33.00;72.20
19168;DHT22;9716;53.114;18.040;2023-06-26T07:03:01;33.00;72.30
19168;DHT22;9716;53.114;18.040;2023-06-26T07:05:31;33.10;71.70
19168;DHT22;9716;53.114;18.040;2023-06-26T07:08:01;33.30;71.10
19168;DHT22;9716;53.114;18.040;2023-06-26T07:10:31;33.40;71.70
19168;DHT22;9716;53.114;18.040;2023-06-26T07:12:59;33.60;70.50
19168;DHT22;9716;53.114;18.040;2023-06-26T07:15:29;33.70;70.10
19168;DHT22;9716;53.114;18.040;2023-06-26T07:17:57;33.90;69.50
19168;DHT22;9716;53.114;18.040;2023-06-26T07:20:26;34.00;69.20
19168;DHT22;9716;53.114;18.040;2023-06-26T07:22:55;34.10;68.70
19168;DHT22;9716;53.114;18.040;2023-06-26T07:25:25;34.10;68.10
19168;DHT22;9716;53.114;18.040;2023-06-26T07:27:53;34.30;67.70
19168;DHT22;9716;53.114;18.040;2023-06-26T07:30:22;34.40;67.20
19168;DHT22;9716;53.114;18.040;2023-06-26T07:32:51;34.40;66.90
19168;DHT22;9716;53.114;18.040;2023-06-26T07:35:19;34.50;67.10
19168;DHT22;9716;53.114;18.040;2023-06-26T07:37:48;34.50;66.60
19168;DHT22;9716;53.114;18.040;2023-06-26T07:40:16;34.80;65.80
19168;DHT22;9716;53.114;18.040;2023-06-26T07:42:46;34.90;65.50
19168;DHT22;9716;53.114;18.040;2023-06-26T07:45:15;35.00;65.40
19168;DHT22;9716;53.114;18.040;2023-06-26T07:47:44;35.00;65.40
19168;DHT22;9716;53.114;18.040;2023-06-26T07:50:13;35.10;65.40
19168;DHT22;9716;53.114;18.040;2023-06-26T07:52:46;35.40;65.60
19168;DHT22;9716;53.114;18.040;2023-06-26T07:55:15;35.50;64.10
19168;DHT22;9716;53.114;18.040;2023-06-26T07:57:43;35.70;63.50
19168;DHT22;9716;53.114;18.040;2023-06-26T08:00:15;35.70;63.40
19168;DHT22;9716;53.114;18.040;2023-06-26T08:02:43;35.70;62.90
19168;DHT22;9716;53.114;18.040;2023-06-26T08:05:12;35.60;61.70
19168;DHT22;9716;53.114;18.040;2023-06-26T08:07:41;35.60;62.20
19168;DHT22;9716;53.114;18.040;2023-06-26T08:10:10;35.70;62.20
19168;DHT22;9716;53.114;18.040;2023-06-26T08:12:38;35.70;62.40
19168;DHT22;9716;53.114;18.040;2023-06-26T08:15:10;35.80;62.50
19168;DHT22;9716;53.114;18.040;2023-06-26T08:17:40;35.90;61.80
19168;DHT22;9716;53.114;18.040;2023-06-26T08:20:09;36.00;61.30
19168;DHT22;9716;53.114;18.040;2023-06-26T08:22:38;36.20;59.90
19168;DHT22;9716;53.114;18.040;2023-06-26T08:25:07;36.20;59.80
19168;DHT22;9716;53.114;18.040;2023-06-26T08:27:35;36.10;60.70
19168;DHT22;9716;53.114;18.040;2023-06-26T08:30:05;36.10;59.40
19168;DHT22;9716;53.114;18.040;2023-06-26T08:32:34;36.10;58.90
19168;DHT22;9716;53.114;18.040;2023-06-26T08:35:05;35.90;58.80
19168;DHT22;9716;53.114;18.040;2023-06-26T08:37:34;35.80;59.70
19168;DHT22;9716;53.114;18.040;2023-06-26T08:40:03;35.80;60.10
19168;DHT22;9716;53.114;18.040;2023-06-26T08:42:31;35.90;60.00
19168;DHT22;9716;53.114;18.040;2023-06-26T08:45:00;36.00;60.00
19168;DHT22;9716;53.114;18.040;2023-06-26T08:47:30;36.20;59.20
19168;DHT22;9716;53.114;18.040;2023-06-26T08:50:06;36.30;58.80
19168;DHT22;9716;53.114;18.040;2023-06-26T08:52:39;36.40;59.10
19168;DHT22;9716;53.114;18.040;2023-06-26T08:55:10;36.50;58.80
19168;DHT22;9716;53.114;18.040;2023-06-26T08:57:39;36.50;58.90
19168;DHT22;9716;53.114;18.040;2023-06-26T09:00:09;36.40;57.90
19168;DHT22;9716;53.114;18.040;2023-06-26T09:02:38;36.30;58.30
19168;DHT22;9716;53.114;18.040;2023-06-26T09:05:12;36.10;58.90
19168;DHT22;9716;53.114;18.040;2023-06-26T09:07:41;36.00;59.40
19168;DHT22;9716;53.114;18.040;2023-06-26T09:10:10;36.00;58.30
19168;DHT22;9716;53.114;18.040;2023-06-26T09:12:39;35.90;57.70
19168;DHT22;9716;53.114;18.040;2023-06-26T09:15:08;35.70;58.30
19168;DHT22;9716;53.114;18.040;2023-06-26T09:17:39;35.50;58.90
19168;DHT22;9716;53.114;18.040;2023-06-26T09:20:09;35.40;58.30
19168;DHT22;9716;53.114;18.040;2023-06-26T09:22:41;35.50;58.30
19168;DHT22;9716;53.114;18.040;2023-06-26T09:25:10;35.40;57.80
19168;DHT22;9716;53.114;18.040;2023-06-26T09:27:39;35.30;58.00
19168;DHT22;9716;53.114;18.040;2023-06-26T09:30:08;35.10;57.70
19168;DHT22;9716;53.114;18.040;2023-06-26T09:32:37;34.90;59.00
19168;DHT22;9716;53.114;18.040;2023-06-26T09:35:06;34.70;58.10
19168;DHT22;9716;53.114;18.040;2023-06-26T09:37:36;34.80;56.30
19168;DHT22;9716;53.114;18.040;2023-06-26T09:40:07;34.80;57.30
19168;DHT22;9716;53.114;18.040;2023-06-26T09:42:36;34.80;58.90
19168;DHT22;9716;53.114;18.040;2023-06-26T09:45:06;34.80;58.40
19168;DHT22;9716;53.114;18.040;2023-06-26T09:47:34;34.90;58.50
19168;DHT22;9716;53.114;18.040;2023-06-26T09:50:04;34.80;59.00
19168;DHT22;9716;53.114;18.040;2023-06-26T09:52:35;34.70;59.40
19168;DHT22;9716;53.114;18.040;2023-06-26T09:55:10;34.60;58.40
19168;DHT22;9716;53.114;18.040;2023-06-26T09:57:39;34.60;57.60
19168;DHT22;9716;53.114;18.040;2023-06-26T10:00:10;34.50;58.50
19168;DHT22;9716;53.114;18.040;2023-06-26T10:02:54;34.50;59.10
19168;DHT22;9716;53.114;18.040;2023-06-26T10:05:23;34.50;58.00
19168;DHT22;9716;53.114;18.040;2023-06-26T10:07:52;34.40;58.10
19168;DHT22;9716;53.114;18.040;2023-06-26T10:10:24;34.10;59.10
19168;DHT22;9716;53.114;18.040;2023-06-26T10:12:57;33.90;58.30
19168;DHT22;9716;53.114;18.040;2023-06-26T10:15:29;33.80;59.20
19168;DHT22;9716;53.114;18.040;2023-06-26T10:17:58;33.70;59.70
19168;DHT22;9716;53.114;18.040;2023-06-26T10:20:27;33.70;58.40
19168;DHT22;9716;53.114;18.040;2023-06-26T10:22:58;33.50;59.00
19168;DHT22;9716;53.114;18.040;2023-06-26T10:25:31;33.40;59.30
19168;DHT22;9716;53.114;18.040;2023-06-26T10:28:02;33.40;58.90
19168;DHT22;9716;53.114;18.040;2023-06-26T10:30:33;33.20;58.70
19168;DHT22;9716;53.114;18.040;2023-06-26T10:33:04;33.10;58.60
19168;DHT22;9716;53.114;18.040;2023-06-26T10:35:33;32.90;58.80
19168;DHT22;9716;53.114;18.040;2023-06-26T10:38:02;32.60;58.20
19168;DHT22;9716;53.114;18.040;2023-06-26T10:40:42;32.50;59.10
19168;DHT22;9716;53.114;18.040;2023-06-26T10:43:12;32.30;60.40
19168;DHT22;9716;53.114;18.040;2023-06-26T10:45:45;32.30;60.40
19168;DHT22;9716;53.114;18.040;2023-06-26T10:48:19;32.40;59.90
19168;DHT22;9716;53.114;18.040;2023-06-26T10:50:48;32.30;59.40
19168;DHT22;9716;53.114;18.040;2023-06-26T10:53:22;32.40;60.20
19168;DHT22;9716;53.114;18.040;2023-06-26T10:55:57;32.30;59.20
19168;DHT22;9716;53.114;18.040;2023-06-26T10:58:31;32.20;59.40
19168;DHT22;9716;53.114;18.040;2023-06-26T11:01:18;32.20;60.40
19168;DHT22;9716;53.114;18.040;2023-06-26T11:03:49;32.20;59.70
19168;DHT22;9716;53.114;18.040;2023-06-26T11:06:19;32.30;60.80
19168;DHT22;9716;53.114;18.040;2023-06-26T11:08:49;32.40;61.20
19168;DHT22;9716;53.114;18.040;2023-06-26T11:11:19;32.60;61.10
19168;DHT22;9716;53.114;18.040;2023-06-26T11:13:48;32.70;61.30
19168;DHT22;9716;53.114;18.040;2023-06-26T11:16:17;32.80;61.50
19168;DHT22;9716;53.114;18.040;2023-06-26T11:18:45;32.90;61.20
19168;DHT22;9716;53.114;18.040;2023-06-26T11:21:14;33.10;61.40
19168;DHT22;9716;53.114;18.040;2023-06-26T11:23:45;33.20;60.20
19168;DHT22;9716;53.114;18.040;2023-06-26T11:26:16;33.30;60.70
19168;DHT22;9716;53.114;18.040;2023-06-26T11:28:50;33.40;59.90
19168;DHT22;9716;53.114;18.040;2023-06-26T11:31:27;33.40;60.20
19168;DHT22;9716;53.114;18.040;2023-06-26T11:33:58;33.40;60.90
19168;DHT22;9716;53.114;18.040;2023-06-26T11:36:29;33.40;60.50
19168;DHT22;9716;53.114;18.040;2023-06-26T11:38:58;33.30;59.30
19168;DHT22;9716;53.114;18.040;2023-06-26T11:41:28;33.20;60.40
19168;DHT22;9716;53.114;18.040;2023-06-26T11:44:01;33.10;61.20
19168;DHT22;9716;53.114;18.040;2023-06-26T11:46:33;33.10;60.40
19168;DHT22;9716;53.114;18.040;2023-06-26T11:49:03;33.00;60.90
19168;DHT22;9716;53.114;18.040;2023-06-26T11:51:33;33.00;61.10
19168;DHT22;9716;53.114;18.040;2023-06-26T11:54:04;32.90;60.90
19168;DHT22;9716;53.114;18.040;2023-06-26T11:56:33;32.90;61.60
19168;DHT22;9716;53.114;18.040;2023-06-26T11:59:04;32.90;61.20
19168;DHT22;9716;53.114;18.040;2023-06-26T12:01:39;32.90;59.70
19168;DHT22;9716;53.114;18.040;2023-06-26T12:04:10;32.90;60.00
19168;DHT22;9716;53.114;18.040;2023-06-26T12:06:40;32.90;58.70
19168;DHT22;9716;53.114;18.040;2023-06-26T12:09:11;32.90;58.90
19168;DHT22;9716;53.114;18.040;2023-06-26T12:11:43;32.80;59.20
19168;DHT22;9716;53.114;18.040;2023-06-26T12:14:12;32.70;59.50
19168;DHT22;9716;53.114;18.040;2023-06-26T12:16:42;32.60;59.40
19168;DHT22;9716;53.114;18.040;2023-06-26T12:19:11;32.50;59.10
19168;DHT22;9716;53.114;18.040;2023-06-26T12:21:47;32.40;58.10
19168;DHT22;9716;53.114;18.040;2023-06-26T12:24:20;32.20;59.50
19168;DHT22;9716;53.114;18.040;2023-06-26T12:26:51;32.10;60.40
19168;DHT22;9716;53.114;18.040;2023-06-26T12:29:29;32.00;60.50
19168;DHT22;9716;53.114;18.040;2023-06-26T12:31:59;31.80;59.50
19168;DHT22;9716;53.114;18.040;2023-06-26T12:34:32;31.80;59.50
19168;DHT22;9716;53.114;18.040;2023-06-26T12:37:02;31.80;59.30
19168;DHT22;9716;53.114;18.040;2023-06-26T12:39:45;31.90;58.70
19168;DHT22;9716;53.114;18.040;2023-06-26T12:42:16;31.80;59.40
19168;DHT22;9716;53.114;18.040;2023-06-26T12:44:47;31.70;59.40
19168;DHT22;9716;53.114;18.040;2023-06-26T12:47:16;31.60;59.60
19168;DHT22;9716;53.114;18.040;2023-06-26T12:49:50;31.40;59.40
19168;DHT22;9716;53.114;18.040;2023-06-26T12:52:20;31.30;59.40
19168;DHT22;9716;53.114;18.040;2023-06-26T12:54:52;31.20;59.80
19168;DHT22;9716;53.114;18.040;2023-06-26T12:57:22;31.00;60.40
19168;DHT22;9716;53.114;18.040;2023-06-26T12:59:52;30.80;61.40
19168;DHT22;9716;53.114;18.040;2023-06-26T13:02:21;30.70;62.50
19168;DHT22;9716;53.114;18.040;2023-06-26T13:04:50;30.70;62.90
19168;DHT22;9716;53.114;18.040;2023-06-26T13:07:18;30.70;63.10
19168;DHT22;9716;53.114;18.040;2023-06-26T13:09:47;30.60;62.90
19168;DHT22;9716;53.114;18.040;2023-06-26T13:12:16;30.60;62.00
19168;DHT22;9716;53.114;18.040;2023-06-26T13:14:44;30.60;61.60
19168;DHT22;9716;53.114;18.040;2023-06-26T13:17:14;30.50;61.90
19168;DHT22;9716;53.114;18.040;2023-06-26T13:19:43;30.50;62.20
19168;DHT22;9716;53.114;18.040;2023-06-26T13:22:11;30.50;62.20
19168;DHT22;9716;53.114;18.040;2023-06-26T13:24:40;30.40;61.70
19168;DHT22;9716;53.114;18.040;2023-06-26T13:27:09;30.30;62.20
19168;DHT22;9716;53.114;18.040;2023-06-26T13:29:38;30.40;61.10
19168;DHT22;9716;53.114;18.040;2023-06-26T13:32:07;30.60;61.10
19168;DHT22;9716;53.114;18.040;2023-06-26T13:34:37;30.80;60.60
19168;DHT22;9716;53.114;18.040;2023-06-26T13:37:06;31.10;60.50
19168;DHT22;9716;53.114;18.040;2023-06-26T13:39:34;31.30;60.40
19168;DHT22;9716;53.114;18.040;2023-06-26T13:42:04;31.40;60.30
19168;DHT22;9716;53.114;18.040;2023-06-26T13:44:32;31.60;60.40
19168;DHT22;9716;53.114;18.040;2023-06-26T13:47:18;31.60;59.90
19168;DHT22;9716;53.114;18.040;2023-06-26T13:49:48;31.60;59.80
19168;DHT22;9716;53.114;18.040;2023-06-26T13:52:16;31.60;60.00
19168;DHT22;9716;53.114;18.040;2023-06-26T13:54:45;31.70;60.20
19168;DHT22;9716;53.114;18.040;2023-06-26T13:57:14;31.80;60.20
19168;DHT22;9716;53.114;18.040;2023-06-26T13:59:42;31.90;60.00
19168;DHT22;9716;53.114;18.040;2023-06-26T14:02:14;32.10;60.10
19168;DHT22;9716;53.114;18.040;2023-06-26T14:04:43;32.10;60.10
19168;DHT22;9716;53.114;18.040;2023-06-26T14:07:14;32.10;60.20
19168;DHT22;9716;53.114;18.040;2023-06-26T14:09:42;32.10;60.10
19168;DHT22;9716;53.114;18.040;2023-06-26T14:12:11;32.10;60.10
19168;DHT22;9716;53.114;18.040;2023-06-26T14:14:40;32.10;60.00
19168;DHT22;9716;53.114;18.040;2023-06-26T14:17:09;32.10;60.20
19168;DHT22;9716;53.114;18.040;2023-06-26T14:19:43;32.10;60.30
19168;DHT22;9716;53.114;18.040;2023-06-26T14:22:14;32.10;60.50
19168;DHT22;9716;53.114;18.040;2023-06-26T14:24:42;32.00;59.80
19168;DHT22;9716;53.114;18.040;2023-06-26T14:27:11;31.90;59.80
19168;DHT22;9716;53.114;18.040;2023-06-26T14:29:40;31.90;60.10
19168;DHT22;9716;53.114;18.040;2023-06-26T14:32:08;31.80;60.20
19168;DHT22;9716;53.114;18.040;2023-06-26T14:34:37;31.80;60.50
19168;DHT22;9716;53.114;18.040;2023-06-26T14:37:05;31.70;60.50
19168;DHT22;9716;53.114;18.040;2023-06-26T14:39:35;31.70;60.70
19168;DHT22;9716;53.114;18.040;2023-06-26T14:42:06;31.70;60.90
19168;DHT22;9716;53.114;18.040;2023-06-26T14:44:35;31.70;60.90
19168;DHT22;9716;53.114;18.040;2023-06-26T14:47:05;31.60;60.90
19168;DHT22;9716;53.114;18.040;2023-06-26T14:49:33;31.50;60.30
19168;DHT22;9716;53.114;18.040;2023-06-26T14:52:02;31.40;60.10
19168;DHT22;9716;53.114;18.040;2023-06-26T14:54:30;31.30;60.10
19168;DHT22;9716;53.114;18.040;2023-06-26T14:57:01;31.20;60.20
19168;DHT22;9716;53.114;18.040;2023-06-26T14:59:30;31.20;60.30
19168;DHT22;9716;53.114;18.040;2023-06-26T15:01:59;31.10;60.30
19168;DHT22;9716;53.114;18.040;2023-06-26T15:04:27;31.00;60.50
19168;DHT22;9716;53.114;18.040;2023-06-26T15:06:57;31.00;60.80
19168;DHT22;9716;53.114;18.040;2023-06-26T15:09:26;30.90;60.80
19168;DHT22;9716;53.114;18.040;2023-06-26T15:11:55;30.90;60.80
19168;DHT22;9716;53.114;18.040;2023-06-26T15:14:25;30.80;60.70
19168;DHT22;9716;53.114;18.040;2023-06-26T15:16:53;30.80;60.30
19168;DHT22;9716;53.114;18.040;2023-06-26T15:19:22;30.70;60.40
19168;DHT22;9716;53.114;18.040;2023-06-26T15:21:51;30.70;60.20
19168;DHT22;9716;53.114;18.040;2023-06-26T15:24:19;30.60;60.30
19168;DHT22;9716;53.114;18.040;2023-06-26T15:26:48;30.50;60.40
19168;DHT22;9716;53.114;18.040;2023-06-26T15:29:16;30.50;60.40
19168;DHT22;9716;53.114;18.040;2023-06-26T15:31:47;30.50;60.50
19168;DHT22;9716;53.114;18.040;2023-06-26T15:34:15;30.40;60.20
19168;DHT22;9716;53.114;18.040;2023-06-26T15:36:46;30.40;60.60
19168;DHT22;9716;53.114;18.040;2023-06-26T15:39:15;30.40;60.60
19168;DHT22;9716;53.114;18.040;2023-06-26T15:41:44;30.40;60.90
19168;DHT22;9716;53.114;18.040;2023-06-26T15:44:12;30.30;60.00
19168;DHT22;9716;53.114;18.040;2023-06-26T15:46:41;30.30;59.60